ADDS METAR Data INFO
IDs: Format: Raw Decoded Include TAF

Data at: 0254 UTC 17 Jan 2018

KCVC 170236Z AUTO 30011G14KT 10SM OVC040 04/00 A3035 RMK AO2
KCVC 170216Z AUTO 30011KT 10SM OVC046 05/00 A3034 RMK AO2
KCVC 170156Z AUTO 29009KT 10SM OVC048 06/00 A3034 RMK AO2
KCVC 170136Z AUTO 29010KT 10SM OVC048 07/00 A3033 RMK AO2
KCVC 170036Z AUTO 26003KT 10SM OVC050 09/01 A3031 RMK AO2
KCVC 170016Z AUTO 25004KT 10SM OVC050 09/01 A3031 RMK AO2
KCVC 162357Z AUTO 26003KT 10SM OVC050 09/00 A3031 RMK AO2
KCVC 162336Z AUTO 26003KT 10SM SCT042 OVC050 10/00 A3031 RMK AO2
KCVC 162316Z AUTO 00000KT 10SM BKN042 OVC048 10/M01 A3031 RMK AO2
KCVC 162237Z AUTO 26003KT 10SM OVC044 10/M01 A3031 RMK AO2
KCVC 162156Z AUTO 27003KT 10SM OVC048 11/M01 A3031 RMK AO2
KCVC 162037Z AUTO 26004KT 10SM BKN120 12/M01 A3032 RMK AO2
KCVC 161938Z AUTO 27005KT 10SM CLR 12/M02 A3034 RMK AO2
KCVC 161916Z AUTO 26004KT 10SM CLR 12/M02 A3034 RMK AO2
KCVC 161858Z AUTO 23004KT 10SM CLR 11/M02 A3034 RMK AO2
KCVC 161836Z AUTO 19004KT 10SM CLR 11/M02 A3035 RMK AO2
KCVC 161756Z AUTO 00000KT 10SM CLR 11/M03 A3037 RMK AO2
KCVC 161736Z AUTO 00000KT 10SM CLR 10/M03 A3038 RMK AO2
KCVC 161537Z AUTO 32003KT 10SM CLR 06/M03 A3043 RMK AO2
KCVC 161516Z AUTO 21004KT 10SM CLR 06/M04 A3044 RMK AO2
KCVC 161456Z AUTO 25003KT 10SM CLR 05/M04 A3043 RMK AO2
KCVC 161417Z AUTO 00000KT 10SM CLR 04/M03 A3042 RMK AO2
KCVC 161356Z AUTO 18003KT 10SM CLR 03/M03 A3040 RMK AO2
KCVC 161336Z AUTO 17003KT 10SM CLR 02/M04 A3039 RMK AO2
KCVC 161318Z AUTO 00000KT 10SM CLR 02/M04 A3039 RMK AO2
KCVC 161258Z AUTO 00000KT 10SM CLR 01/M04 A3039 RMK AO2
KCVC 161219Z AUTO 00000KT 10SM CLR M01/M04 A3039 RMK AO2
KCVC 161157Z AUTO 00000KT 10SM CLR M02/M04 A3039 RMK AO2
KCVC 161136Z AUTO 00000KT 10SM CLR M02/M03 A3039 RMK AO2
KCVC 161116Z AUTO 00000KT 10SM CLR M02/M03 A3040 RMK AO2
KCVC 161056Z AUTO 00000KT 10SM CLR M02/M03 A3040 RMK AO2
KCVC 160916Z AUTO 00000KT 10SM CLR M01/M04 A3040 RMK AO2
KCVC 160856Z AUTO 00000KT 10SM CLR M02/M04 A3040 RMK AO2
KCVC 160836Z AUTO 00000KT 10SM CLR M01/M03 A3040 RMK AO2
KCVC 160816Z AUTO 00000KT 10SM CLR M02/M04 A3040 RMK AO2
KCVC 160758Z AUTO 00000KT 10SM CLR M02/M03 A3041 RMK AO2
KCVC 160736Z AUTO 00000KT 10SM CLR M01/M04 A3041 RMK AO2
KCVC 160656Z AUTO 00000KT 10SM CLR M01/M04 A3040 RMK AO2
KCVC 160636Z AUTO 00000KT 10SM CLR 00/M03 A3040 RMK AO2
KCVC 160616Z AUTO 00000KT 10SM CLR M01/M03 A3040 RMK AO2
KCVC 160556Z AUTO 00000KT 10SM CLR 00/M04 A3041 RMK AO2
KCVC 160536Z AUTO 00000KT 10SM CLR 00/M03 A3041 RMK AO2
KCVC 160516Z AUTO 00000KT 10SM CLR 01/M03 A3041 RMK AO2
KCVC 160417Z AUTO 00000KT 10SM CLR 00/M03 A3042 RMK AO2
KCVC 160356Z AUTO 00000KT 10SM CLR 01/M03 A3042 RMK AO2
KCVC 160337Z AUTO 00000KT 10SM CLR 00/M03 A3042 RMK AO2
KCVC 160257Z AUTO 00000KT 10SM CLR 01/M03 A3042 RMK AO2
KCVC 160236Z AUTO 00000KT 10SM CLR 01/M03 A3041 RMK AO2
KCVC 160156Z AUTO 00000KT 10SM CLR 02/M03 A3041 RMK AO2
KCVC 160136Z AUTO 08004KT 10SM CLR 01/M03 A3040 RMK AO2
KCVC 160116Z AUTO 08003KT 10SM CLR 01/M03 A3040 RMK AO2
KCVC 160056Z AUTO 00000KT 10SM CLR 01/M03 A3040 RMK AO2
KCVC 160037Z AUTO 00000KT 10SM CLR 02/M02 A3039 RMK AO2
KCVC 152356Z AUTO 00000KT 10SM CLR 03/M03 A3039 RMK AO2
KCVC 152337Z AUTO 00000KT 10SM CLR 03/M03 A3038 RMK AO2
KCVC 152316Z AUTO 00000KT 10SM CLR 04/M03 A3039 RMK AO2
KCVC 152256Z AUTO 00000KT 10SM CLR 06/M03 A3039 RMK AO2
KCVC 152236Z AUTO 00000KT 10SM CLR 07/M04 A3039 RMK AO2
KCVC 152216Z AUTO 00000KT 10SM CLR 08/M06 A3039 RMK AO2
KCVC 152156Z AUTO 00000KT 10SM CLR 09/M06 A3039 RMK AO2
KCVC 152136Z AUTO 00000KT 10SM CLR 09/M06 A3039 RMK AO2
KCVC 152116Z AUTO 19004KT 10SM CLR 09/M06 A3038 RMK AO2
KCVC 152017Z AUTO 00000KT 10SM CLR 09/M07 A3039 RMK AO2
KCVC 151937Z AUTO 20003KT 10SM CLR 09/M07 A3040 RMK AO2
KCVC 151916Z AUTO 00000KT 10SM CLR 08/M07 A3040 RMK AO2
KCVC 151836Z AUTO 00000KT 10SM CLR 07/M07 A3041 RMK AO2
KCVC 151816Z AUTO 00000KT 10SM CLR 07/M08 A3042 RMK AO2
KCVC 151737Z AUTO 00000KT 10SM CLR 06/M07 A3046 RMK AO2
KCVC 151657Z AUTO 09003KT 10SM CLR 04/M07 A3048 RMK AO2
KCVC 151637Z AUTO 14003KT 10SM CLR 04/M07 A3048 RMK AO2
KCVC 151556Z AUTO 00000KT 10SM CLR 03/M07 A3052 RMK AO2
KCVC 151537Z AUTO 07003KT 10SM CLR 02/M07 A3052 RMK AO2
KCVC 151517Z AUTO 07004KT 10SM CLR 01/M06 A3051 RMK AO2
KCVC 151458Z AUTO 09005KT 10SM CLR 01/M06 A3051 RMK AO2